地図

経路データ

SID SEASON NUMBER BASIN SUBBASIN NAME ISO_TIME NATURE LAT LON WMO_WIND WMO_PRES WMO_AGENCY TRACK_TYPE DIST2LAND LANDFALL IFLAG USA_AGENCY USA_ATCF_ID USA_LAT USA_LON USA_RECORD USA_STATUS USA_WIND USA_PRES USA_SSHS USA_R34_NE USA_R34_SE USA_R34_SW USA_R34_NW USA_R50_NE USA_R50_SE USA_R50_SW USA_R50_NW USA_R64_NE USA_R64_SE USA_R64_SW USA_R64_NW USA_POCI USA_ROCI USA_RMW USA_EYE TOKYO_LAT TOKYO_LON TOKYO_GRADE TOKYO_WIND TOKYO_PRES TOKYO_R50_DIR TOKYO_R50_LONG TOKYO_R50_SHORT TOKYO_R30_DIR TOKYO_R30_LONG TOKYO_R30_SHORT TOKYO_LAND CMA_LAT CMA_LON CMA_CAT CMA_WIND CMA_PRES HKO_LAT HKO_LON HKO_CAT HKO_WIND HKO_PRES NEWDELHI_LAT NEWDELHI_LON NEWDELHI_GRADE NEWDELHI_WIND NEWDELHI_PRES NEWDELHI_CI NEWDELHI_DP NEWDELHI_POCI REUNION_LAT REUNION_LON REUNION_TYPE REUNION_WIND REUNION_PRES REUNION_TNUM REUNION_CI REUNION_RMW REUNION_R34_NE REUNION_R34_SE REUNION_R34_SW REUNION_R34_NW REUNION_R50_NE REUNION_R50_SE REUNION_R50_SW REUNION_R50_NW REUNION_R64_NE REUNION_R64_SE REUNION_R64_SW REUNION_R64_NW BOM_LAT BOM_LON BOM_TYPE BOM_WIND BOM_PRES BOM_TNUM BOM_CI BOM_RMW BOM_R34_NE BOM_R34_SE BOM_R34_SW BOM_R34_NW BOM_R50_NE BOM_R50_SE BOM_R50_SW BOM_R50_NW BOM_R64_NE BOM_R64_SE BOM_R64_SW BOM_R64_NW BOM_ROCI BOM_POCI BOM_EYE BOM_POS_METHOD BOM_PRES_METHOD NADI_LAT NADI_LON NADI_CAT NADI_WIND NADI_PRES WELLINGTON_LAT WELLINGTON_LON WELLINGTON_WIND WELLINGTON_PRES DS824_LAT DS824_LON DS824_STAGE DS824_WIND DS824_PRES TD9636_LAT TD9636_LON TD9636_STAGE TD9636_WIND TD9636_PRES TD9635_LAT TD9635_LON TD9635_WIND TD9635_PRES TD9635_ROCI NEUMANN_LAT NEUMANN_LON NEUMANN_CLASS NEUMANN_WIND NEUMANN_PRES MLC_LAT MLC_LON MLC_CLASS MLC_WIND MLC_PRES USA_GUST BOM_GUST BOM_GUST_PER REUNION_GUST REUNION_GUST_PER USA_SEAHGT USA_SEARAD_NE USA_SEARAD_SE USA_SEARAD_SW USA_SEARAD_NW STORM_SPEED STORM_DIR
1860011S13068 1860 1 SI MM NOT_NAMED 1860-01-11 06:00:00 NR -13.4000 68.3000 reunion main 1354 1354 _____O________ -1 -13.4000 68.3000 99 9.90000 0 0
1860011S13068 1860 1 SI MM NOT_NAMED 1860-01-11 09:00:00 NR -13.4153 68.2863 main 1354 1354 _____P________ -1 -13.4153 68.2863 99 1 226
1860011S13068 1860 1 SI MM NOT_NAMED 1860-01-11 12:00:00 NR -13.4386 68.2620 main 1354 1339 _____P________ -1 -13.4386 68.2620 99 1 230
1860011S13068 1860 1 SI MM NOT_NAMED 1860-01-11 15:00:00 NR -13.4782 68.2166 main 1339 1330 _____P________ -1 -13.4782 68.2166 99 2 229
1860011S13068 1860 1 SI MM NOT_NAMED 1860-01-11 18:00:00 NR -13.5419 68.1395 main 1330 1315 _____P________ -1 -13.5419 68.1395 99 3 230
1860011S13068 1860 1 SI MM NOT_NAMED 1860-01-11 21:00:00 NR -13.6380 68.0200 main 1315 1293 _____P________ -1 -13.6380 68.0200 99 4 231
1860011S13068 1860 1 SI MM NOT_NAMED 1860-01-12 00:00:00 NR -13.7744 67.8476 main 1284 1260 _____P________ -1 -13.7744 67.8476 99 5 231
1860011S13068 1860 1 SI MM NOT_NAMED 1860-01-12 03:00:00 NR -13.9591 67.6112 main 1254 1214 _____P________ -1 -13.9591 67.6112 99 7 231
1860011S13068 1860 1 SI MM NOT_NAMED 1860-01-12 06:00:00 NR -14.2000 67.3000 reunion main 1214 1160 _____O________ -1 -14.2000 67.3000 99 9.90000 9 232
1860011S13068 1860 1 SI MM NOT_NAMED 1860-01-12 09:00:00 NR -14.5017 66.9072 main 1160 1105 _____P________ -1 -14.5017 66.9072 99 11 232
1860011S13068 1860 1 SI MM NOT_NAMED 1860-01-12 12:00:00 NR -14.8553 66.4443 main 1090 1036 _____P________ -1 -14.8553 66.4443 99 12 232
1860011S13068 1860 1 SI MM NOT_NAMED 1860-01-12 15:00:00 NR -15.2489 65.9270 main 1027 957 _____P________ -1 -15.2489 65.9270 99 13 232
1860011S13068 1860 1 SI MM NOT_NAMED 1860-01-12 18:00:00 NR -15.6704 65.3717 main 951 873 _____P________ -1 -15.6704 65.3717 99 14 232
1860011S13068 1860 1 SI MM NOT_NAMED 1860-01-12 21:00:00 NR -16.1078 64.7946 main 873 795 _____P________ -1 -16.1078 64.7946 99 14 232
1860011S13068 1860 1 SI MM NOT_NAMED 1860-01-13 00:00:00 NR -16.5496 64.2124 main 795 721 _____P________ -1 -16.5496 64.2124 99 14 232
1860011S13068 1860 1 SI MM NOT_NAMED 1860-01-13 03:00:00 NR -16.9841 63.6419 main 712 643 _____P________ -1 -16.9841 63.6419 99 14 231
1860011S13068 1860 1 SI MM NOT_NAMED 1860-01-13 06:00:00 NR -17.4000 63.1000 reunion main 643 575 _____O________ -1 -17.4000 63.1000 99 9.90000 13 231
1860011S13068 1860 1 SI MM NOT_NAMED 1860-01-13 09:00:00 NR -17.7868 62.6004 main 575 513 _____P________ -1 -17.7868 62.6004 99 12 231
1860011S13068 1860 1 SI MM NOT_NAMED 1860-01-13 12:00:00 NR -18.1656 62.1156 main 508 455 _____P________ -1 -18.1656 62.1156 99 12 230
1860011S13068 1860 1 SI MM NOT_NAMED 1860-01-13 15:00:00 NR -18.5315 61.6524 main 455 389 _____P________ -1 -18.5315 61.6524 99 11 230
1860011S13068 1860 1 SI MM NOT_NAMED 1860-01-13 18:00:00 NR -18.8797 61.2174 main 389 337 _____P________ -1 -18.8797 61.2174 99 10 230
1860011S13068 1860 1 SI MM NOT_NAMED 1860-01-13 21:00:00 NR -19.2053 60.8176 main 337 296 _____P________ -1 -19.2053 60.8176 99 10 229
1860011S13068 1860 1 SI MM NOT_NAMED 1860-01-14 00:00:00 NR -19.5038 60.4600 main 296 256 _____P________ -1 -19.5038 60.4600 99 8 228
1860011S13068 1860 1 SI MM NOT_NAMED 1860-01-14 03:00:00 NR -19.7702 60.1518 main 256 221 _____P________ -1 -19.7702 60.1518 99 7 227
1860011S13068 1860 1 SI MM NOT_NAMED 1860-01-14 06:00:00 NR -20.0000 59.9000 reunion main 221 198 _____O________ -1 -20.0000 59.9000 99 9.90000 6 225
1860011S13068 1860 1 SI MM NOT_NAMED 1860-01-14 09:00:00 NR -20.1784 59.7137 main 198 187 _____P________ -1 -20.1784 59.7137 99 4 223
1860011S13068 1860 1 SI MM NOT_NAMED 1860-01-14 12:00:00 NR -20.3188 59.5869 main 187 177 _____P________ -1 -20.3188 59.5869 99 3 217
1860011S13068 1860 1 SI MM NOT_NAMED 1860-01-14 15:00:00 NR -20.4292 59.5093 main 177 177 _____P________ -1 -20.4292 59.5093 99 2 209
1860011S13068 1860 1 SI MM NOT_NAMED 1860-01-14 18:00:00 NR -20.5173 59.4708 main 178 178 _____P________ -1 -20.5173 59.4708 99 2 196
1860011S13068 1860 1 SI MM NOT_NAMED 1860-01-14 21:00:00 NR -20.5907 59.4609 main 180 180 _____P________ -1 -20.5907 59.4609 99 1 191
1860011S13068 1860 1 SI MM NOT_NAMED 1860-01-15 00:00:00 NR -20.6572 59.4694 main 182 182 _____P________ -1 -20.6572 59.4694 99 1 0
1860011S13068 1860 1 SI MM NOT_NAMED 1860-01-15 03:00:00 NR -20.7244 59.4859 main 182 182 _____P________ -1 -20.7244 59.4859 99 1 165
1860011S13068 1860 1 SI MM NOT_NAMED 1860-01-15 06:00:00 NR -20.8000 59.5000 reunion main 185 179 _____O________ -1 -20.8000 59.5000 99 9.90000 2 199
1860011S13068 1860 1 SI MM NOT_NAMED 1860-01-15 09:00:00 NR -20.8696 59.4266 main 179 179 _____P________ -1 -20.8696 59.4266 99 2 225
1860011S13068 1860 1 SI MM NOT_NAMED 1860-01-15 12:00:00 NR -20.9378 59.3526 main 179 169 _____P________ -1 -20.9378 59.3526 99 2 222
1860011S13068 1860 1 SI MM NOT_NAMED 1860-01-15 15:00:00 NR -21.0132 59.2853 main 174 169 _____P________ -1 -21.0132 59.2853 99 2 214
1860011S13068 1860 1 SI MM NOT_NAMED 1860-01-15 18:00:00 NR -21.1044 59.2317 main 169 169 _____P________ -1 -21.1044 59.2317 99 2 200
1860011S13068 1860 1 SI MM NOT_NAMED 1860-01-15 21:00:00 NR -21.2200 59.1992 main 174 174 _____P________ -1 -21.2200 59.1992 99 3 190
1860011S13068 1860 1 SI MM NOT_NAMED 1860-01-16 00:00:00 NR -21.3687 59.1948 main 185 185 _____P________ -1 -21.3687 59.1948 99 3 0
1860011S13068 1860 1 SI MM NOT_NAMED 1860-01-16 03:00:00 NR -21.5592 59.2260 main 198 198 _____P________ -1 -21.5592 59.2260 99 4 167
1860011S13068 1860 1 SI MM NOT_NAMED 1860-01-16 06:00:00 NR -21.8000 59.3000 reunion main 220 220 _____O________ -1 -21.8000 59.3000 99 9.90000 5 171
1860011S13068 1860 1 SI MM NOT_NAMED 1860-01-16 09:00:00 NR -22.0784 59.3208 main 243 243 _____P________ -1 -22.0784 59.3208 99 6 174
1860011S13068 1860 1 SI MM NOT_NAMED 1860-01-16 12:00:00 NR -22.4031 59.3710 main 275 275 _____P________ -1 -22.4031 59.3710 99 7 169
1860011S13068 1860 1 SI MM NOT_NAMED 1860-01-16 15:00:00 NR -22.7719 59.4665 main 317 317 _____P________ -1 -22.7719 59.4665 99 8 163
1860011S13068 1860 1 SI MM NOT_NAMED 1860-01-16 18:00:00 NR -23.1827 59.6232 main 359 359 _____P________ -1 -23.1827 59.6232 99 9 157
1860011S13068 1860 1 SI MM NOT_NAMED 1860-01-16 21:00:00 NR -23.6332 59.8577 main 414 414 _____P________ -1 -23.6332 59.8577 99 11 151
1860011S13068 1860 1 SI MM NOT_NAMED 1860-01-17 00:00:00 NR -24.1213 60.1869 main 477 477 _____P________ -1 -24.1213 60.1869 99 12 145
1860011S13068 1860 1 SI MM NOT_NAMED 1860-01-17 03:00:00 NR -24.6445 60.6283 main 546 546 _____P________ -1 -24.6445 60.6283 99 14 140
1860011S13068 1860 1 SI MM NOT_NAMED 1860-01-17 06:00:00 NR -25.2000 61.2000 reunion main 635 635 _____O________ -1 -25.2000 61.2000 99 9.90000 18 133
1860011S13068 1860 1 SI MM NOT_NAMED 1860-01-17 09:00:00 NR -25.8556 62.0766 main 752 752 _____P________ -1 -25.8556 62.0766 99 22 128
1860011S13068 1860 1 SI MM NOT_NAMED 1860-01-17 12:00:00 NR -26.5552 63.1159 main 875 875 _____P________ -1 -26.5552 63.1159 99 24 126
1860011S13068 1860 1 SI MM NOT_NAMED 1860-01-17 15:00:00 NR -27.2709 64.2682 main 1013 1013 _____P________ -1 -27.2709 64.2682 99 25 124
1860011S13068 1860 1 SI MM NOT_NAMED 1860-01-17 18:00:00 NR -27.9755 65.4811 main 1151 1151 _____P________ -1 -27.9755 65.4811 99 26 123
1860011S13068 1860 1 SI MM NOT_NAMED 1860-01-17 21:00:00 NR -28.6433 66.6995 main 1282 1282 _____P________ -1 -28.6433 66.6995 99 25 121
1860011S13068 1860 1 SI MM NOT_NAMED 1860-01-18 00:00:00 NR -29.2505 67.8655 main 1421 1421 _____P________ -1 -29.2505 67.8655 99 22 120
1860011S13068 1860 1 SI MM NOT_NAMED 1860-01-18 03:00:00 NR -29.7759 68.9193 main 1530 1530 _____P________ -1 -29.7759 68.9193 99 19 119
1860011S13068 1860 1 SI MM NOT_NAMED 1860-01-18 06:00:00 NR -30.2000 69.8000 reunion main 1625 1625 _____O________ -1 -30.2000 69.8000 99 9.90000 15 119
1860011S13068 1860 1 SI MM NOT_NAMED 1860-01-18 09:00:00 NR -30.5108 70.4609 main 1699 1699 _____P________ -1 -30.5108 70.4609 99 11 118
1860011S13068 1860 1 SI MM NOT_NAMED 1860-01-18 12:00:00 NR -30.7202 70.9141 main 1743 1743 _____P________ -1 -30.7202 70.9141 99 7 118
1860011S13068 1860 1 SI MM NOT_NAMED 1860-01-18 15:00:00 NR -30.8445 71.1878 main 1772 1772 _____P________ -1 -30.8445 71.1878 99 4 118
1860011S13068 1860 1 SI MM NOT_NAMED 1860-01-18 18:00:00 NR -30.8991 71.3112 main 1786 1786 _____P________ -1 -30.8991 71.3112 99 1 117
1860011S13068 1860 1 SI MM NOT_NAMED 1860-01-18 21:00:00 NR -30.8980 71.3139 main 1786 1779 _____P________ -1 -30.8980 71.3139 99 1 303
1860011S13068 1860 1 SI MM NOT_NAMED 1860-01-19 00:00:00 NR -30.8554 71.2262 main 1779 1765 _____P________ -1 -30.8554 71.2262 99 2 299
1860011S13068 1860 1 SI MM NOT_NAMED 1860-01-19 03:00:00 NR -30.7848 71.0781 main 1765 1743 _____P________ -1 -30.7848 71.0781 99 3 299
1860011S13068 1860 1 SI MM NOT_NAMED 1860-01-19 06:00:00 NR -30.7000 70.9000 reunion main 1743 _____O________ -1 -30.7000 70.9000 99 9.90000 4 299

IBTrACS Databaseについて

本データベースは、米国NOAAが公開する1842年以降の世界の熱帯低気圧のベストトラックデータアーカイブInternational Best Track Archive for Climate Stewardship (IBTrACS)を、ウェブで閲覧しやすい形式に変換したものです。

最終更新日:2021-10-21